createdAt,value
2022-11-24T00:00:27.946Z,7.35
2022-11-24T00:03:24.661Z,7.00
2022-11-24T00:06:16.862Z,6.72
2022-11-24T00:08:50.775Z,7.47
2022-11-24T00:11:40.384Z,7.95
2022-11-24T00:14:18.724Z,6.90
2022-11-24T00:17:16.115Z,5.63
2022-11-24T00:20:15.631Z,5.53
2022-11-24T00:23:12.628Z,5.95
2022-11-24T00:29:27.581Z,6.25
2022-11-24T00:34:58.346Z,6.78
2022-11-24T00:37:37.367Z,6.45
2022-11-24T00:40:22.616Z,6.78
2022-11-24T00:43:20.249Z,6.65
2022-11-24T00:46:00.268Z,6.68
2022-11-24T00:48:36.051Z,6.53
2022-11-24T00:51:18.764Z,6.63
2022-11-24T00:54:12.120Z,5.72
2022-11-24T00:56:45.465Z,4.95
2022-11-24T00:59:28.413Z,5.75
2022-11-24T01:02:09.036Z,4.60
2022-11-24T01:04:40.651Z,5.07
2022-11-24T01:07:28.887Z,5.50
2022-11-24T01:10:08.406Z,5.10
2022-11-24T01:13:08.460Z,5.10
2022-11-24T01:16:04.619Z,5.60
2022-11-24T01:18:47.064Z,5.20
2022-11-24T01:21:19.234Z,5.25
2022-11-24T01:24:04.856Z,5.15
2022-11-24T01:26:47.758Z,6.32
2022-11-24T01:30:05.820Z,5.72
2022-11-24T01:33:09.002Z,5.35
2022-11-24T01:36:18.224Z,5.55
2022-11-24T01:38:57.985Z,5.57
2022-11-24T01:41:26.786Z,5.00
2022-11-24T01:43:56.257Z,5.97
2022-11-24T01:46:31.573Z,5.90
2022-11-24T01:49:05.070Z,5.82
2022-11-24T01:51:37.339Z,6.20
2022-11-24T01:54:39.671Z,6.15
2022-11-24T01:57:20.454Z,5.70
2022-11-24T01:59:50.764Z,5.28
2022-11-24T02:02:27.116Z,6.43
2022-11-24T02:04:56.485Z,5.68
2022-11-24T02:07:25.415Z,5.88
2022-11-24T02:10:00.920Z,6.28
2022-11-24T02:12:29.403Z,6.50
2022-11-24T02:14:58.145Z,5.82
2022-11-24T02:17:25.705Z,5.35
2022-11-24T02:19:59.211Z,5.10
2022-11-24T02:22:35.913Z,5.03
2022-11-24T02:25:42.458Z,4.40
2022-11-24T02:28:20.046Z,4.30
2022-11-24T02:30:48.372Z,5.00
2022-11-24T02:33:16.907Z,5.07
2022-11-24T02:35:47.179Z,5.07
2022-11-24T02:38:15.604Z,5.97
2022-11-24T02:40:48.632Z,4.97
2022-11-24T02:43:22.695Z,4.60
2022-11-24T02:45:50.409Z,4.47
2022-11-24T02:48:18.325Z,4.97
2022-11-24T02:50:48.610Z,4.32
2022-11-24T02:53:19.816Z,4.60
2022-11-24T02:55:58.030Z,4.93
2022-11-24T02:58:25.822Z,4.85
2022-11-24T03:00:57.741Z,5.55
2022-11-24T03:03:26.374Z,5.97
2022-11-24T03:06:07.624Z,5.80
2022-11-24T03:08:35.836Z,6.07
2022-11-24T03:11:09.191Z,5.90
2022-11-24T03:13:40.167Z,5.90
2022-11-24T03:16:18.166Z,5.93
2022-11-24T03:18:48.560Z,6.43
2022-11-24T03:21:18.163Z,6.15
2022-11-24T03:23:47.191Z,6.43
2022-11-24T03:26:21.380Z,5.70
2022-11-24T03:28:49.691Z,6.05
2022-11-24T03:31:20.070Z,6.80
2022-11-24T03:33:51.264Z,6.72
2022-11-24T03:36:22.155Z,5.75
2022-11-24T03:38:57.482Z,7.40
2022-11-24T03:41:29.092Z,6.35
2022-11-24T03:43:57.438Z,6.70
2022-11-24T03:46:25.706Z,6.72
2022-11-24T03:48:54.859Z,7.10
2022-11-24T03:54:25.323Z,7.45
2022-11-24T03:56:54.955Z,7.95
2022-11-24T03:59:31.058Z,7.80
2022-11-24T04:01:59.265Z,7.43
2022-11-24T04:04:36.844Z,8.43
2022-11-24T04:07:08.196Z,8.82
2022-11-24T04:09:39.120Z,8.88
2022-11-24T04:12:31.102Z,8.93
2022-11-24T04:15:04.886Z,9.13
2022-11-24T04:17:39.691Z,9.73
2022-11-24T04:20:11.298Z,10.20
2022-11-24T04:22:39.840Z,11.50
2022-11-24T04:25:11.403Z,11.43
2022-11-24T04:27:42.515Z,10.45
2022-11-24T04:30:10.490Z,10.95
2022-11-24T04:32:44.092Z,12.23
2022-11-24T04:35:13.293Z,13.70
2022-11-24T04:37:44.437Z,13.27
2022-11-24T04:40:17.272Z,12.05
2022-11-24T04:42:57.095Z,12.77
2022-11-24T04:45:25.524Z,12.07
2022-11-24T04:47:53.277Z,10.90
2022-11-24T04:50:21.067Z,10.73
2022-11-24T04:52:49.147Z,10.02
2022-11-24T04:55:17.213Z,8.43
2022-11-24T04:57:45.190Z,8.02
2022-11-24T05:00:13.982Z,8.32
2022-11-24T05:02:41.635Z,8.90
2022-11-24T05:05:11.938Z,7.45
2022-11-24T05:07:39.687Z,8.02
2022-11-24T05:10:26.580Z,8.00
2022-11-24T05:13:00.687Z,8.15
2022-11-24T05:15:35.928Z,8.35
2022-11-24T05:18:14.334Z,8.73
2022-11-24T05:20:45.318Z,8.48
2022-11-24T05:23:19.044Z,9.77
2022-11-24T05:25:47.902Z,10.73
2022-11-24T05:28:19.899Z,10.48
2022-11-24T05:30:47.888Z,9.77
2022-11-24T05:33:20.035Z,9.90
2022-11-24T05:35:54.900Z,8.70
2022-11-24T05:38:32.017Z,8.55
2022-11-24T05:41:05.555Z,8.65
2022-11-24T05:43:33.533Z,8.52
2022-11-24T05:46:04.668Z,8.57
2022-11-24T05:48:32.373Z,8.30
2022-11-24T05:51:05.149Z,8.30
2022-11-24T05:53:35.517Z,8.52
2022-11-24T05:56:04.734Z,8.90
2022-11-24T05:58:32.326Z,9.20
2022-11-24T06:00:59.892Z,9.52
2022-11-24T06:03:27.626Z,8.57
2022-11-24T06:06:01.613Z,9.73
2022-11-24T06:08:31.378Z,9.02
2022-11-24T06:11:18.612Z,8.95
2022-11-24T06:13:53.542Z,8.25
2022-11-24T06:16:30.149Z,9.80
2022-11-24T06:19:29.062Z,10.10
2022-11-24T06:25:02.378Z,9.73
2022-11-24T06:27:40.083Z,10.05
2022-11-24T06:30:34.466Z,9.63
2022-11-24T06:36:10.664Z,9.43
2022-11-24T06:44:48.693Z,10.27
2022-11-24T06:47:43.090Z,13.40
2022-11-24T06:50:14.023Z,14.30
2022-11-24T06:52:45.463Z,16.48
2022-11-24T06:55:30.976Z,16.23
2022-11-24T07:04:28.653Z,20.23
2022-11-24T07:06:56.318Z,20.63
2022-11-24T07:09:23.878Z,17.25
2022-11-24T07:11:51.419Z,15.38
2022-11-24T07:14:19.814Z,15.15
2022-11-24T07:16:47.367Z,14.70
2022-11-24T07:19:17.937Z,15.27
2022-11-24T07:21:47.821Z,13.88
2022-11-24T07:24:15.391Z,13.55
2022-11-24T07:26:42.954Z,13.20
2022-11-24T07:29:11.676Z,12.38
2022-11-24T07:31:39.848Z,13.38
2022-11-24T07:34:07.927Z,14.85
2022-11-24T07:36:35.847Z,11.90
2022-11-24T07:39:06.305Z,11.80
2022-11-24T07:41:34.338Z,13.27
2022-11-24T07:44:02.635Z,11.85
2022-11-24T07:46:30.816Z,13.15
2022-11-24T07:52:16.765Z,13.43
2022-11-24T07:54:47.768Z,12.90
2022-11-24T07:57:24.452Z,14.13
2022-11-24T08:16:13.476Z,13.48
2022-11-24T08:18:43.147Z,12.95
2022-11-24T08:21:14.927Z,13.13
2022-11-24T08:24:01.940Z,12.27
2022-11-24T08:58:54.838Z,14.23
2022-11-24T09:10:22.886Z,14.57
2022-11-24T10:09:06.076Z,14.43
2022-11-24T10:15:36.255Z,15.20
2022-11-24T10:18:25.092Z,16.70
2022-11-24T10:20:54.224Z,16.00
2022-11-24T10:23:53.177Z,15.80
2022-11-24T10:26:36.110Z,15.98
2022-11-24T10:29:33.239Z,15.60
2022-11-24T10:32:06.053Z,15.75
2022-11-24T10:34:50.082Z,16.92
2022-11-24T10:37:31.391Z,15.63
2022-11-24T10:43:17.555Z,16.88
2022-11-24T10:45:46.207Z,17.08
2022-11-24T10:48:26.664Z,17.02
2022-11-24T10:51:05.651Z,16.70
2022-11-24T10:53:35.674Z,16.80
2022-11-24T10:56:07.891Z,16.15
2022-11-24T10:58:38.561Z,16.60
2022-11-24T11:01:24.480Z,16.60
2022-11-24T11:03:58.304Z,17.40
2022-11-24T11:06:30.452Z,17.57
2022-11-24T11:09:07.676Z,16.88
2022-11-24T11:11:40.311Z,16.38
2022-11-24T11:14:13.097Z,16.73
2022-11-24T11:17:03.919Z,16.20
2022-11-24T11:19:56.890Z,17.10
2022-11-24T11:22:33.417Z,15.95
2022-11-24T11:25:10.156Z,17.58
2022-11-24T11:27:39.823Z,16.88
2022-11-24T11:36:12.087Z,17.42
2022-11-24T11:38:41.950Z,18.60
2022-11-24T11:41:20.061Z,18.52
2022-11-24T11:43:55.167Z,18.27
2022-11-24T11:46:29.060Z,17.83
2022-11-24T11:48:57.355Z,17.53
2022-11-24T11:51:34.426Z,17.75
2022-11-24T11:54:02.968Z,18.23
2022-11-24T11:56:35.795Z,18.35
2022-11-24T11:59:18.825Z,17.85
2022-11-24T12:01:49.656Z,18.08
2022-11-24T12:04:26.613Z,19.30
2022-11-24T12:07:27.486Z,18.38
2022-11-24T12:10:34.436Z,17.92
2022-11-24T12:13:32.375Z,17.77
2022-11-24T12:16:19.580Z,17.70
2022-11-24T12:19:21.121Z,17.60
2022-11-24T12:22:16.625Z,21.10
2022-11-24T12:25:03.439Z,17.10
2022-11-24T12:28:05.867Z,17.02
2022-11-24T12:30:59.301Z,17.15
2022-11-24T12:33:36.713Z,17.33
2022-11-24T12:36:39.918Z,16.02
2022-11-24T12:39:41.079Z,18.52
2022-11-24T12:42:46.411Z,17.48
2022-11-24T12:45:47.268Z,18.88
2022-11-24T12:48:48.108Z,17.45
2022-11-24T12:51:19.166Z,17.33
2022-11-24T12:53:49.759Z,17.40
2022-11-24T12:56:26.541Z,17.55
2022-11-24T12:59:10.303Z,17.60
2022-11-24T13:02:05.694Z,17.35
2022-11-24T13:04:59.010Z,16.98
2022-11-24T13:07:49.311Z,17.45
2022-11-24T13:10:53.732Z,17.55
2022-11-24T13:13:19.380Z,17.27
2022-11-24T13:19:15.181Z,15.82
2022-11-24T13:21:51.140Z,15.23
2022-11-24T13:24:40.997Z,15.93
2022-11-24T13:27:17.416Z,14.63
2022-11-24T13:30:00.817Z,16.63
2022-11-24T13:32:43.233Z,17.70
2022-11-24T13:35:15.855Z,15.10
2022-11-24T13:37:48.417Z,16.05
2022-11-24T13:40:18.351Z,14.00
2022-11-24T13:43:03.571Z,14.13
2022-11-24T13:45:41.370Z,13.77
2022-11-24T13:48:22.414Z,15.77
2022-11-24T13:50:50.384Z,16.25
2022-11-24T13:53:41.228Z,16.38
2022-11-24T13:56:17.704Z,14.65
2022-11-24T13:58:53.956Z,14.05
2022-11-24T14:01:44.793Z,15.23
2022-11-24T14:04:32.644Z,14.20
2022-11-24T14:07:09.888Z,14.50
2022-11-24T14:10:00.089Z,15.20
2022-11-24T14:12:31.533Z,14.02
2022-11-24T14:15:23.937Z,13.80
2022-11-24T14:17:51.793Z,14.15
2022-11-24T14:20:28.691Z,13.57
2022-11-24T14:39:05.260Z,13.38
2022-11-24T14:42:17.354Z,14.20
2022-11-24T14:44:57.203Z,11.85
2022-11-24T14:47:33.722Z,12.38
2022-11-24T14:50:36.004Z,11.45
2022-11-24T15:04:46.186Z,13.85
2022-11-24T15:11:08.871Z,17.73
2022-11-24T15:14:30.856Z,17.65
2022-11-24T15:31:56.253Z,19.02
2022-11-24T15:44:04.558Z,18.50
2022-11-24T16:11:14.498Z,18.52
2022-11-24T16:47:56.995Z,20.10
2022-11-24T16:51:03.165Z,21.63
2022-11-24T16:56:58.558Z,20.67
2022-11-24T16:59:26.281Z,19.55
2022-11-24T17:01:57.043Z,21.27
2022-11-24T17:04:26.208Z,20.38
2022-11-24T17:06:54.086Z,21.27
2022-11-24T17:09:22.753Z,20.20
2022-11-24T17:11:50.507Z,22.52
2022-11-24T17:14:24.146Z,21.67
2022-11-24T17:16:51.981Z,21.10
2022-11-24T17:19:26.801Z,20.75
2022-11-24T17:21:59.378Z,19.27
2022-11-24T17:24:29.964Z,21.80
2022-11-24T17:26:57.490Z,21.15
2022-11-24T17:29:27.166Z,20.63
2022-11-24T17:31:56.934Z,20.58
2022-11-24T17:34:40.783Z,20.80
2022-11-24T17:37:38.998Z,20.83
2022-11-24T17:40:34.534Z,20.48
2022-11-24T17:43:02.439Z,20.95
2022-11-24T17:45:30.780Z,19.90
2022-11-24T17:48:01.754Z,21.35
2022-11-24T17:50:29.317Z,20.85
2022-11-24T17:52:56.933Z,20.95
2022-11-24T17:55:24.451Z,19.80
2022-11-24T17:57:52.548Z,20.40
2022-11-24T18:00:20.273Z,20.83
2022-11-24T18:02:47.805Z,20.55
2022-11-24T18:05:15.554Z,21.13
2022-11-24T18:07:43.107Z,20.65
2022-11-24T18:10:11.172Z,20.80
2022-11-24T18:12:38.856Z,22.77
2022-11-24T18:15:06.988Z,22.38
2022-11-24T18:17:34.584Z,20.65
2022-11-24T18:20:02.265Z,20.58
2022-11-24T18:22:57.864Z,20.33
2022-11-24T18:25:17.216Z,20.95
2022-11-24T18:27:47.259Z,20.58
2022-11-24T18:30:15.468Z,21.20
2022-11-24T18:32:43.046Z,21.02
2022-11-24T18:35:10.811Z,20.40
2022-11-24T18:37:43.713Z,20.80
2022-11-24T18:40:11.698Z,20.50
2022-11-24T18:42:39.248Z,21.13
2022-11-24T18:45:07.484Z,20.40
2022-11-24T18:47:35.186Z,20.48
2022-11-24T18:50:02.747Z,20.98
2022-11-24T18:52:30.270Z,21.58
2022-11-24T18:55:03.814Z,21.70
2022-11-24T18:57:31.717Z,21.70
2022-11-24T18:59:59.356Z,21.30
2022-11-24T19:02:27.249Z,22.48
2022-11-24T19:04:55.061Z,20.58
2022-11-24T19:07:22.543Z,22.02
2022-11-24T19:09:50.142Z,23.10
2022-11-24T19:12:17.748Z,23.60
2022-11-24T19:14:45.271Z,22.08
2022-11-24T19:17:12.874Z,22.02
2022-11-24T19:19:40.400Z,22.65
2022-11-24T19:22:09.074Z,22.63
2022-11-24T19:24:39.708Z,22.92
2022-11-24T19:27:08.035Z,22.48
2022-11-24T19:29:40.314Z,21.42
2022-11-24T19:32:10.888Z,20.83
2022-11-24T19:34:39.104Z,22.05
2022-11-24T19:37:06.691Z,21.05
2022-11-24T19:39:34.533Z,21.85
2022-11-24T19:42:02.350Z,21.80
2022-11-24T19:44:29.856Z,21.35
2022-11-24T19:47:07.442Z,21.20
2022-11-24T19:49:34.972Z,20.38
2022-11-24T19:52:02.864Z,21.92
2022-11-24T19:54:30.664Z,21.17
2022-11-24T19:56:58.193Z,19.85
2022-11-24T19:59:26.542Z,21.48
2022-11-24T20:01:54.434Z,21.65
2022-11-24T20:04:22.209Z,22.70
2022-11-24T20:06:49.932Z,22.13
2022-11-24T20:09:18.686Z,20.70
2022-11-24T20:11:47.140Z,22.15
2022-11-24T20:14:18.182Z,21.15
2022-11-24T20:16:47.806Z,18.85
2022-11-24T20:19:16.830Z,18.90
2022-11-24T20:21:47.829Z,21.30
2022-11-24T20:24:23.469Z,20.15
2022-11-24T20:26:58.357Z,21.08
2022-11-24T20:29:28.592Z,22.48
2022-11-24T20:31:59.038Z,22.42
2022-11-24T20:34:27.686Z,21.65
2022-11-24T20:36:55.263Z,21.58
2022-11-24T20:39:26.494Z,20.02
2022-11-24T20:41:55.302Z,19.38
2022-11-24T20:44:23.752Z,20.17
2022-11-24T20:46:51.567Z,19.33
2022-11-24T20:49:21.960Z,21.23
2022-11-24T20:51:54.449Z,20.02
2022-11-24T20:54:22.136Z,19.35
2022-11-24T20:56:50.012Z,20.35
2022-11-24T20:59:21.663Z,19.08
2022-11-24T21:01:53.057Z,19.27
2022-11-24T21:04:25.637Z,20.02
2022-11-24T21:06:53.465Z,19.20
2022-11-24T21:09:21.006Z,19.67
2022-11-24T21:11:48.895Z,19.35
2022-11-24T21:14:16.598Z,18.67
2022-11-24T21:16:44.816Z,19.80
2022-11-24T21:19:14.836Z,18.88
2022-11-24T21:21:43.381Z,19.77
2022-11-24T21:24:16.491Z,21.73
2022-11-24T21:26:47.577Z,21.52
2022-11-24T21:29:18.955Z,22.92
2022-11-24T21:31:46.505Z,20.98
2022-11-24T21:34:15.772Z,21.75
2022-11-24T21:36:45.137Z,21.98
2022-11-24T21:39:14.443Z,19.55
2022-11-24T21:41:42.440Z,21.75
2022-11-24T21:44:13.201Z,20.35
2022-11-24T21:46:47.864Z,20.38
2022-11-24T21:49:17.291Z,20.30
2022-11-24T21:51:44.805Z,20.13
2022-11-24T21:54:12.715Z,20.15
2022-11-24T21:56:40.266Z,21.25
2022-11-24T21:59:10.291Z,23.23
2022-11-24T22:01:37.801Z,23.30
2022-11-24T22:04:05.474Z,23.80
2022-11-24T22:06:33.436Z,21.58
2022-11-24T22:09:01.267Z,22.27
2022-11-24T22:11:28.984Z,22.60
2022-11-24T22:13:56.731Z,23.38
2022-11-24T22:16:25.889Z,24.15
2022-11-24T22:18:53.638Z,22.90
2022-11-24T22:21:30.059Z,24.85
2022-11-24T22:23:57.781Z,25.42
2022-11-24T22:26:26.302Z,22.85
2022-11-24T22:28:55.268Z,22.00
2022-11-24T22:31:27.822Z,22.50
2022-11-24T22:33:57.174Z,21.27
2022-11-24T22:36:27.954Z,22.70
2022-11-24T22:39:03.131Z,23.35
2022-11-24T22:41:37.491Z,22.83
2022-11-24T22:44:07.705Z,23.50
2022-11-24T22:46:35.432Z,22.75
2022-11-24T22:49:04.886Z,24.10
2022-11-24T22:51:34.784Z,22.48
2022-11-24T22:54:04.255Z,21.83
2022-11-24T22:56:33.563Z,22.90
2022-11-24T22:59:02.478Z,20.92
2022-11-24T23:01:36.072Z,21.55
2022-11-24T23:04:04.300Z,21.03
2022-11-24T23:06:33.401Z,21.25
2022-11-24T23:09:02.309Z,21.38
2022-11-24T23:11:37.495Z,23.63
2022-11-24T23:14:19.798Z,25.95
2022-11-24T23:16:48.158Z,27.00
2022-11-24T23:19:15.905Z,26.67
2022-11-24T23:21:43.577Z,27.67
2022-11-24T23:24:11.731Z,25.70
2022-11-24T23:26:41.047Z,24.30
2022-11-24T23:29:10.163Z,24.77
2022-11-24T23:31:40.179Z,23.73
2022-11-24T23:34:08.190Z,24.10
2022-11-24T23:36:35.958Z,23.92
2022-11-24T23:39:09.277Z,23.75
2022-11-24T23:41:37.151Z,22.65
2022-11-24T23:44:04.958Z,24.02
2022-11-24T23:46:32.818Z,25.60
2022-11-24T23:49:00.591Z,23.45
2022-11-24T23:51:30.477Z,20.85
2022-11-24T23:53:59.462Z,21.33
2022-11-24T23:56:33.115Z,19.73
2022-11-24T23:59:05.455Z,21.80
